Date,TemperatureHighF,TemperatureAvgF,TemperatureLowF,DewpointHighF,DewpointAvgF,DewpointLowF,HumidityHigh,HumidityAvg,HumidityLow,PressureMaxIn,PressureMinIn,WindSpeedMaxMPH,WindSpeedAvgMPH,GustSpeedMaxMPH,PrecipitationSumIn
2013-5-1,48.4,39.7,33.8,30.4,23.9,18.5,67,53,43,29.29,28.76,25,9,25,0.00
2013-5-2,50.2,38.8,31.5,25.7,22.5,18.2,72,53,38,29.38,29.20,25,8,25,0.00
2013-5-3,47.8,37.0,26.6,32.2,22.2,16.4,83,56,39,29.23,28.91,26,9,26,0.00
2013-5-4,40.5,37.4,34.5,38.3,35.3,31.8,97,92,85,28.94,28.88,22,9,22,0.00
2013-5-5,57.7,46.0,37.9,46.1,41.6,37.2,98,86,63,28.94,28.85,10,4,10,0.00
2013-5-6,77.9,55.9,37.6,53.0,43.9,36.3,96,69,38,28.91,28.76,9,2,9,0.00
2013-5-7,83.7,61.2,39.2,53.5,43.4,36.3,95,59,26,28.85,28.67,14,2,14,0.00
2013-5-8,64.2,57.9,52.5,57.8,52.2,41.2,96,82,46,28.82,28.70,18,5,18,0.00
2013-5-9,56.3,53.0,46.2,54.2,48.7,36.5,97,86,66,28.91,28.73,27,12,27,0.00
2013-5-10,74.7,54.7,36.9,46.8,29.7,-14.5,79,46,3,28.94,28.64,29,8,29,0.00
2013-5-11,54.9,46.0,35.1,35.5,24.7,16.7,73,45,26,28.97,28.76,33,12,33,0.00
2013-5-12,63.1,46.9,30.2,26.4,11.6,-10.7,66,33,5,29.03,28.85,20,5,20,0.00
2013-5-13,82.6,61.8,37.9,49.3,36.3,22.8,57,39,30,28.85,28.41,18,6,18,0.00
2013-5-14,99.3,71.2,45.5,57.0,32.7,-17.0,85,39,2,28.52,28.29,40,10,40,0.00
2013-5-15,83.8,66.2,48.9,49.0,43.0,37.1,78,46,21,28.70,28.52,22,6,22,0.00
2013-5-16,88.2,66.3,45.3,50.1,43.7,37.4,80,47,23,28.67,28.55,27,9,27,0.00
2013-5-17,66.0,60.6,56.8,57.0,50.5,0.0,95,73,35,28.73,28.61,31,16,31,0.00
2013-5-18,77.7,66.0,57.2,68.5,61.8,55.5,98,87,69,28.67,28.47,27,9,27,0.00
2013-5-19,84.9,68.2,61.0,68.8,62.5,57.5,97,84,47,28.52,28.29,33,7,33,0.00
2013-5-20,71.1,63.1,59.0,64.2,58.6,52.5,97,86,62,28.32,28.23,18,5,18,0.00
2013-5-21,59.0,53.1,48.4,57.7,52.0,47.2,98,96,90,28.52,28.23,28,13,31,0.00
2013-5-22,54.0,49.4,45.7,50.2,46.8,42.6,98,91,75,28.82,28.50,42,15,42,0.00
2013-5-23,68.5,54.9,42.6,43.2,39.6,34.8,90,60,34,29.09,28.82,24,8,24,0.00
2013-5-24,74.5,56.3,39.0,52.5,40.6,30.7,90,59,32,29.12,28.88,27,9,27,0.00
2013-5-25,59.4,56.2,53.4,51.6,49.5,46.5,86,78,72,30.13,28.88,32,16,32,0.10
2013-5-26,57.3,54.1,51.2,51.0,47.5,43.9,88,79,66,30.13,29.91,28,17,37,11.38
2013-5-27,62.9,57.4,53.6,55.2,53.0,49.8,95,86,71,29.97,29.74,20,13,28,0.00
2013-5-28,67.6,58.1,53.2,60.5,55.2,50.9,97,90,72,29.76,29.65,14,5,18,0.00
2013-5-29,73.2,62.8,53.9,68.4,60.1,52.8,98,91,78,29.76,29.50,22,8,30,0.00
2013-5-30,81.5,69.0,62.7,64.4,60.8,55.8,94,77,48,29.54,29.37,20,7,23,0.00
2013-5-31,66.9,63.4,58.2,61.7,53.6,50.7,90,71,59,29.47,29.34,8,3,13,0.00